sensor_id;sensor_type;location;lat;lon;timestamp;P1;durP1;ratioP1;P2;durP2;ratioP2
11711;SDS011;5912;51.034;6.984;2022-08-21T00:01:07;8.93;;;6.65;;
11711;SDS011;5912;51.034;6.984;2022-08-21T00:03:37;8.82;;;6.90;;
11711;SDS011;5912;51.034;6.984;2022-08-21T00:06:03;11.13;;;7.57;;
11711;SDS011;5912;51.034;6.984;2022-08-21T00:08:28;8.75;;;6.68;;
11711;SDS011;5912;51.034;6.984;2022-08-21T00:10:53;8.23;;;7.13;;
11711;SDS011;5912;51.034;6.984;2022-08-21T00:13:19;10.85;;;7.25;;
11711;SDS011;5912;51.034;6.984;2022-08-21T00:15:46;8.27;;;6.55;;
11711;SDS011;5912;51.034;6.984;2022-08-21T00:18:12;8.23;;;6.30;;
11711;SDS011;5912;51.034;6.984;2022-08-21T00:20:38;8.45;;;6.40;;
11711;SDS011;5912;51.034;6.984;2022-08-21T00:23:04;9.65;;;6.82;;
11711;SDS011;5912;51.034;6.984;2022-08-21T00:25:30;9.85;;;7.05;;
11711;SDS011;5912;51.034;6.984;2022-08-21T00:27:56;9.32;;;7.22;;
11711;SDS011;5912;51.034;6.984;2022-08-21T00:30:23;10.70;;;6.82;;
11711;SDS011;5912;51.034;6.984;2022-08-21T00:32:50;11.00;;;7.28;;
11711;SDS011;5912;51.034;6.984;2022-08-21T00:35:17;8.07;;;7.00;;
11711;SDS011;5912;51.034;6.984;2022-08-21T00:37:50;10.52;;;7.47;;
11711;SDS011;5912;51.034;6.984;2022-08-21T00:40:16;10.77;;;7.55;;
11711;SDS011;5912;51.034;6.984;2022-08-21T00:42:44;10.05;;;7.20;;
11711;SDS011;5912;51.034;6.984;2022-08-21T00:45:10;9.60;;;7.15;;
11711;SDS011;5912;51.034;6.984;2022-08-21T00:47:36;10.90;;;7.28;;
11711;SDS011;5912;51.034;6.984;2022-08-21T00:50:03;8.43;;;6.57;;
11711;SDS011;5912;51.034;6.984;2022-08-21T00:52:31;9.10;;;6.78;;
11711;SDS011;5912;51.034;6.984;2022-08-21T00:54:58;8.30;;;6.50;;
11711;SDS011;5912;51.034;6.984;2022-08-21T00:57:29;9.43;;;6.70;;
11711;SDS011;5912;51.034;6.984;2022-08-21T00:59:58;8.07;;;7.28;;
11711;SDS011;5912;51.034;6.984;2022-08-21T01:02:26;12.73;;;6.95;;
11711;SDS011;5912;51.034;6.984;2022-08-21T01:04:51;10.45;;;7.38;;
11711;SDS011;5912;51.034;6.984;2022-08-21T01:07:17;10.57;;;7.32;;
11711;SDS011;5912;51.034;6.984;2022-08-21T01:09:44;10.40;;;7.32;;
11711;SDS011;5912;51.034;6.984;2022-08-21T01:12:11;8.95;;;7.15;;
11711;SDS011;5912;51.034;6.984;2022-08-21T01:14:37;11.63;;;7.28;;
11711;SDS011;5912;51.034;6.984;2022-08-21T01:17:05;7.38;;;6.53;;
11711;SDS011;5912;51.034;6.984;2022-08-21T01:19:31;10.15;;;7.38;;
11711;SDS011;5912;51.034;6.984;2022-08-21T01:21:57;11.60;;;6.88;;
11711;SDS011;5912;51.034;6.984;2022-08-21T01:24:24;8.82;;;6.63;;
11711;SDS011;5912;51.034;6.984;2022-08-21T01:26:50;10.48;;;6.95;;
11711;SDS011;5912;51.034;6.984;2022-08-21T01:31:41;10.15;;;7.05;;
11711;SDS011;5912;51.034;6.984;2022-08-21T01:34:07;8.30;;;6.30;;
11711;SDS011;5912;51.034;6.984;2022-08-21T01:36:33;10.52;;;6.95;;
11711;SDS011;5912;51.034;6.984;2022-08-21T01:38:59;10.15;;;7.07;;
11711;SDS011;5912;51.034;6.984;2022-08-21T01:41:25;8.35;;;6.38;;
11711;SDS011;5912;51.034;6.984;2022-08-21T01:43:51;8.95;;;6.05;;
11711;SDS011;5912;51.034;6.984;2022-08-21T01:46:16;10.68;;;6.50;;
11711;SDS011;5912;51.034;6.984;2022-08-21T01:48:42;8.93;;;7.00;;
11711;SDS011;5912;51.034;6.984;2022-08-21T01:51:07;9.15;;;6.38;;
11711;SDS011;5912;51.034;6.984;2022-08-21T01:53:34;8.25;;;6.53;;
11711;SDS011;5912;51.034;6.984;2022-08-21T01:56:02;12.52;;;7.47;;
11711;SDS011;5912;51.034;6.984;2022-08-21T01:58:30;9.27;;;6.88;;
11711;SDS011;5912;51.034;6.984;2022-08-21T02:00:55;8.20;;;6.45;;
11711;SDS011;5912;51.034;6.984;2022-08-21T02:03:20;9.18;;;6.38;;
11711;SDS011;5912;51.034;6.984;2022-08-21T02:05:46;7.80;;;6.45;;
11711;SDS011;5912;51.034;6.984;2022-08-21T02:08:11;9.40;;;7.10;;
11711;SDS011;5912;51.034;6.984;2022-08-21T02:10:36;8.93;;;6.95;;
11711;SDS011;5912;51.034;6.984;2022-08-21T02:13:02;9.40;;;7.43;;
11711;SDS011;5912;51.034;6.984;2022-08-21T02:15:28;11.38;;;7.20;;
11711;SDS011;5912;51.034;6.984;2022-08-21T02:17:55;7.78;;;6.65;;
11711;SDS011;5912;51.034;6.984;2022-08-21T02:20:23;12.00;;;7.30;;
11711;SDS011;5912;51.034;6.984;2022-08-21T02:22:49;9.85;;;7.13;;
11711;SDS011;5912;51.034;6.984;2022-08-21T02:25:15;10.63;;;6.63;;
11711;SDS011;5912;51.034;6.984;2022-08-21T02:27:42;10.85;;;7.65;;
11711;SDS011;5912;51.034;6.984;2022-08-21T02:30:32;10.30;;;6.90;;
11711;SDS011;5912;51.034;6.984;2022-08-21T02:32:58;9.57;;;6.50;;
11711;SDS011;5912;51.034;6.984;2022-08-21T02:35:24;8.98;;;7.45;;
11711;SDS011;5912;51.034;6.984;2022-08-21T02:37:52;11.00;;;7.38;;
11711;SDS011;5912;51.034;6.984;2022-08-21T02:40:21;8.48;;;6.97;;
11711;SDS011;5912;51.034;6.984;2022-08-21T02:42:49;8.68;;;7.05;;
11711;SDS011;5912;51.034;6.984;2022-08-21T02:45:14;9.23;;;6.75;;
11711;SDS011;5912;51.034;6.984;2022-08-21T02:47:54;11.68;;;7.75;;
11711;SDS011;5912;51.034;6.984;2022-08-21T02:50:33;9.20;;;7.20;;
11711;SDS011;5912;51.034;6.984;2022-08-21T02:53:01;9.23;;;7.80;;
11711;SDS011;5912;51.034;6.984;2022-08-21T02:55:28;9.73;;;7.68;;
11711;SDS011;5912;51.034;6.984;2022-08-21T02:57:55;10.88;;;7.20;;
11711;SDS011;5912;51.034;6.984;2022-08-21T03:00:23;10.38;;;7.15;;
11711;SDS011;5912;51.034;6.984;2022-08-21T03:02:51;9.90;;;7.20;;
11711;SDS011;5912;51.034;6.984;2022-08-21T03:05:16;12.85;;;7.72;;
11711;SDS011;5912;51.034;6.984;2022-08-21T03:07:43;12.10;;;8.32;;
11711;SDS011;5912;51.034;6.984;2022-08-21T03:10:11;9.23;;;7.80;;
11711;SDS011;5912;51.034;6.984;2022-08-21T03:12:36;9.70;;;7.43;;
11711;SDS011;5912;51.034;6.984;2022-08-21T03:15:03;8.52;;;7.03;;
11711;SDS011;5912;51.034;6.984;2022-08-21T03:17:31;8.80;;;7.53;;
11711;SDS011;5912;51.034;6.984;2022-08-21T03:19:56;10.18;;;7.32;;
11711;SDS011;5912;51.034;6.984;2022-08-21T03:22:22;10.48;;;7.70;;
11711;SDS011;5912;51.034;6.984;2022-08-21T03:24:47;8.57;;;6.85;;
11711;SDS011;5912;51.034;6.984;2022-08-21T03:27:12;9.15;;;7.15;;
11711;SDS011;5912;51.034;6.984;2022-08-21T03:29:38;10.27;;;7.50;;
11711;SDS011;5912;51.034;6.984;2022-08-21T03:32:04;12.18;;;7.47;;
11711;SDS011;5912;51.034;6.984;2022-08-21T03:34:30;9.57;;;7.50;;
11711;SDS011;5912;51.034;6.984;2022-08-21T03:36:55;9.45;;;7.20;;
11711;SDS011;5912;51.034;6.984;2022-08-21T03:39:21;9.45;;;7.13;;
11711;SDS011;5912;51.034;6.984;2022-08-21T03:41:46;9.57;;;7.28;;
11711;SDS011;5912;51.034;6.984;2022-08-21T03:44:12;8.75;;;6.93;;
11711;SDS011;5912;51.034;6.984;2022-08-21T03:46:38;9.07;;;7.00;;
11711;SDS011;5912;51.034;6.984;2022-08-21T03:49:05;9.52;;;6.95;;
11711;SDS011;5912;51.034;6.984;2022-08-21T03:51:31;11.30;;;7.03;;
11711;SDS011;5912;51.034;6.984;2022-08-21T03:53:58;9.70;;;7.30;;
11711;SDS011;5912;51.034;6.984;2022-08-21T03:56:23;11.38;;;7.03;;
11711;SDS011;5912;51.034;6.984;2022-08-21T03:58:50;8.75;;;6.90;;
11711;SDS011;5912;51.034;6.984;2022-08-21T04:01:15;10.13;;;7.10;;
11711;SDS011;5912;51.034;6.984;2022-08-21T04:03:41;12.65;;;7.32;;
11711;SDS011;5912;51.034;6.984;2022-08-21T04:06:06;8.88;;;7.50;;
11711;SDS011;5912;51.034;6.984;2022-08-21T04:08:32;8.82;;;7.05;;
11711;SDS011;5912;51.034;6.984;2022-08-21T04:10:58;9.73;;;7.07;;
11711;SDS011;5912;51.034;6.984;2022-08-21T04:13:23;14.23;;;8.05;;
11711;SDS011;5912;51.034;6.984;2022-08-21T04:15:49;9.52;;;7.53;;
11711;SDS011;5912;51.034;6.984;2022-08-21T04:18:15;9.95;;;7.30;;
11711;SDS011;5912;51.034;6.984;2022-08-21T04:20:41;7.75;;;6.63;;
11711;SDS011;5912;51.034;6.984;2022-08-21T04:23:08;9.27;;;7.55;;
11711;SDS011;5912;51.034;6.984;2022-08-21T04:25:33;9.77;;;7.32;;
11711;SDS011;5912;51.034;6.984;2022-08-21T04:27:59;10.10;;;6.80;;
11711;SDS011;5912;51.034;6.984;2022-08-21T04:30:24;11.50;;;7.63;;
11711;SDS011;5912;51.034;6.984;2022-08-21T04:32:50;10.98;;;7.50;;
11711;SDS011;5912;51.034;6.984;2022-08-21T04:35:18;10.48;;;6.85;;
11711;SDS011;5912;51.034;6.984;2022-08-21T04:37:45;7.57;;;6.25;;
11711;SDS011;5912;51.034;6.984;2022-08-21T04:40:11;8.05;;;6.72;;
11711;SDS011;5912;51.034;6.984;2022-08-21T04:42:47;9.38;;;7.40;;
11711;SDS011;5912;51.034;6.984;2022-08-21T04:47:54;9.82;;;7.13;;
11711;SDS011;5912;51.034;6.984;2022-08-21T04:50:22;8.32;;;6.68;;
11711;SDS011;5912;51.034;6.984;2022-08-21T04:52:51;10.40;;;6.88;;
11711;SDS011;5912;51.034;6.984;2022-08-21T04:55:17;9.90;;;6.47;;
11711;SDS011;5912;51.034;6.984;2022-08-21T04:57:43;9.23;;;7.22;;
11711;SDS011;5912;51.034;6.984;2022-08-21T05:00:09;9.00;;;7.10;;
11711;SDS011;5912;51.034;6.984;2022-08-21T05:02:37;10.55;;;7.28;;
11711;SDS011;5912;51.034;6.984;2022-08-21T05:05:04;11.18;;;7.13;;
11711;SDS011;5912;51.034;6.984;2022-08-21T05:07:30;7.80;;;6.55;;
11711;SDS011;5912;51.034;6.984;2022-08-21T05:09:57;9.65;;;7.57;;
11711;SDS011;5912;51.034;6.984;2022-08-21T05:12:25;9.05;;;6.95;;
11711;SDS011;5912;51.034;6.984;2022-08-21T05:14:50;6.97;;;6.28;;
11711;SDS011;5912;51.034;6.984;2022-08-21T05:17:15;7.38;;;6.43;;
11711;SDS011;5912;51.034;6.984;2022-08-21T05:19:41;8.45;;;5.55;;
11711;SDS011;5912;51.034;6.984;2022-08-21T05:22:06;7.60;;;5.75;;
11711;SDS011;5912;51.034;6.984;2022-08-21T05:24:32;9.35;;;5.32;;
11711;SDS011;5912;51.034;6.984;2022-08-21T05:26:58;9.73;;;6.57;;
11711;SDS011;5912;51.034;6.984;2022-08-21T05:29:23;10.65;;;6.63;;
11711;SDS011;5912;51.034;6.984;2022-08-21T05:31:49;11.95;;;7.43;;
11711;SDS011;5912;51.034;6.984;2022-08-21T05:34:17;8.63;;;6.90;;
11711;SDS011;5912;51.034;6.984;2022-08-21T05:36:43;11.30;;;7.00;;
11711;SDS011;5912;51.034;6.984;2022-08-21T05:39:09;9.73;;;7.25;;
11711;SDS011;5912;51.034;6.984;2022-08-21T05:41:34;10.18;;;7.15;;
11711;SDS011;5912;51.034;6.984;2022-08-21T05:44:00;8.98;;;7.55;;
11711;SDS011;5912;51.034;6.984;2022-08-21T05:46:25;8.02;;;6.78;;
11711;SDS011;5912;51.034;6.984;2022-08-21T05:48:50;9.38;;;6.97;;
11711;SDS011;5912;51.034;6.984;2022-08-21T05:51:16;10.48;;;6.85;;
11711;SDS011;5912;51.034;6.984;2022-08-21T05:53:42;9.40;;;7.30;;
11711;SDS011;5912;51.034;6.984;2022-08-21T05:56:09;9.65;;;6.50;;
11711;SDS011;5912;51.034;6.984;2022-08-21T05:58:35;9.05;;;6.22;;
11711;SDS011;5912;51.034;6.984;2022-08-21T06:01:01;10.02;;;6.70;;
11711;SDS011;5912;51.034;6.984;2022-08-21T06:03:32;7.03;;;6.30;;
11711;SDS011;5912;51.034;6.984;2022-08-21T06:06:01;9.02;;;6.70;;
11711;SDS011;5912;51.034;6.984;2022-08-21T06:08:27;11.10;;;6.70;;
11711;SDS011;5912;51.034;6.984;2022-08-21T06:10:53;8.55;;;7.03;;
11711;SDS011;5912;51.034;6.984;2022-08-21T06:13:20;8.00;;;6.07;;
11711;SDS011;5912;51.034;6.984;2022-08-21T06:15:47;7.38;;;5.93;;
11711;SDS011;5912;51.034;6.984;2022-08-21T06:18:12;9.35;;;7.43;;
11711;SDS011;5912;51.034;6.984;2022-08-21T06:20:38;9.07;;;6.50;;
11711;SDS011;5912;51.034;6.984;2022-08-21T06:23:04;9.13;;;6.53;;
11711;SDS011;5912;51.034;6.984;2022-08-21T06:25:30;11.18;;;6.38;;
11711;SDS011;5912;51.034;6.984;2022-08-21T06:28:03;9.63;;;6.70;;
11711;SDS011;5912;51.034;6.984;2022-08-21T06:30:30;8.40;;;7.03;;
11711;SDS011;5912;51.034;6.984;2022-08-21T06:32:56;10.35;;;6.97;;
11711;SDS011;5912;51.034;6.984;2022-08-21T06:35:22;7.13;;;6.43;;
11711;SDS011;5912;51.034;6.984;2022-08-21T06:37:49;8.85;;;6.78;;
11711;SDS011;5912;51.034;6.984;2022-08-21T06:40:14;8.68;;;6.32;;
11711;SDS011;5912;51.034;6.984;2022-08-21T06:42:40;7.35;;;6.57;;
11711;SDS011;5912;51.034;6.984;2022-08-21T06:45:05;8.98;;;6.55;;
11711;SDS011;5912;51.034;6.984;2022-08-21T06:47:31;8.25;;;6.05;;
11711;SDS011;5912;51.034;6.984;2022-08-21T06:49:56;6.45;;;5.10;;
11711;SDS011;5912;51.034;6.984;2022-08-21T06:52:21;8.48;;;5.97;;
11711;SDS011;5912;51.034;6.984;2022-08-21T06:54:47;6.60;;;4.60;;
11711;SDS011;5912;51.034;6.984;2022-08-21T06:57:12;10.02;;;5.95;;
11711;SDS011;5912;51.034;6.984;2022-08-21T06:59:37;6.65;;;5.15;;
11711;SDS011;5912;51.034;6.984;2022-08-21T07:02:03;10.25;;;4.80;;
11711;SDS011;5912;51.034;6.984;2022-08-21T07:04:28;7.55;;;4.82;;
11711;SDS011;5912;51.034;6.984;2022-08-21T07:06:54;6.20;;;4.53;;
11711;SDS011;5912;51.034;6.984;2022-08-21T07:09:19;7.95;;;4.72;;
11711;SDS011;5912;51.034;6.984;2022-08-21T07:11:45;6.25;;;3.67;;
11711;SDS011;5912;51.034;6.984;2022-08-21T07:14:15;6.70;;;4.00;;
11711;SDS011;5912;51.034;6.984;2022-08-21T07:16:40;5.95;;;4.00;;
11711;SDS011;5912;51.034;6.984;2022-08-21T07:19:05;5.00;;;3.80;;
11711;SDS011;5912;51.034;6.984;2022-08-21T07:21:31;6.55;;;3.65;;
11711;SDS011;5912;51.034;6.984;2022-08-21T07:23:56;6.13;;;3.60;;
11711;SDS011;5912;51.034;6.984;2022-08-21T07:26:23;5.00;;;2.97;;
11711;SDS011;5912;51.034;6.984;2022-08-21T07:28:49;4.70;;;3.17;;
11711;SDS011;5912;51.034;6.984;2022-08-21T07:31:15;4.72;;;3.22;;
11711;SDS011;5912;51.034;6.984;2022-08-21T07:33:42;4.05;;;2.78;;
11711;SDS011;5912;51.034;6.984;2022-08-21T07:36:08;4.68;;;2.75;;
11711;SDS011;5912;51.034;6.984;2022-08-21T07:38:33;4.10;;;2.72;;
11711;SDS011;5912;51.034;6.984;2022-08-21T07:41:00;5.88;;;3.42;;
11711;SDS011;5912;51.034;6.984;2022-08-21T07:43:26;5.82;;;2.40;;
11711;SDS011;5912;51.034;6.984;2022-08-21T07:45:53;5.10;;;2.65;;
11711;SDS011;5912;51.034;6.984;2022-08-21T07:48:20;3.90;;;2.10;;
11711;SDS011;5912;51.034;6.984;2022-08-21T07:50:46;2.95;;;1.98;;
11711;SDS011;5912;51.034;6.984;2022-08-21T07:53:11;4.72;;;1.85;;
11711;SDS011;5912;51.034;6.984;2022-08-21T07:55:37;6.22;;;1.92;;
11711;SDS011;5912;51.034;6.984;2022-08-21T07:58:02;4.18;;;2.13;;
11711;SDS011;5912;51.034;6.984;2022-08-21T08:00:28;3.08;;;1.45;;
11711;SDS011;5912;51.034;6.984;2022-08-21T08:02:54;4.13;;;1.75;;
11711;SDS011;5912;51.034;6.984;2022-08-21T08:05:22;2.97;;;1.52;;
11711;SDS011;5912;51.034;6.984;2022-08-21T08:07:49;3.80;;;1.77;;
11711;SDS011;5912;51.034;6.984;2022-08-21T08:10:15;3.45;;;1.63;;
11711;SDS011;5912;51.034;6.984;2022-08-21T08:12:41;4.93;;;2.00;;
11711;SDS011;5912;51.034;6.984;2022-08-21T08:15:09;5.00;;;1.67;;
11711;SDS011;5912;51.034;6.984;2022-08-21T08:17:37;4.43;;;2.00;;
11711;SDS011;5912;51.034;6.984;2022-08-21T08:20:04;3.65;;;1.98;;
11711;SDS011;5912;51.034;6.984;2022-08-21T08:22:31;2.70;;;2.08;;
11711;SDS011;5912;51.034;6.984;2022-08-21T08:24:56;4.40;;;1.58;;
11711;SDS011;5912;51.034;6.984;2022-08-21T08:27:22;5.75;;;2.15;;
11711;SDS011;5912;51.034;6.984;2022-08-21T08:29:47;4.85;;;1.40;;
11711;SDS011;5912;51.034;6.984;2022-08-21T08:32:14;3.28;;;1.40;;
11711;SDS011;5912;51.034;6.984;2022-08-21T08:34:40;5.30;;;1.92;;
11711;SDS011;5912;51.034;6.984;2022-08-21T08:37:06;5.18;;;1.90;;
11711;SDS011;5912;51.034;6.984;2022-08-21T08:39:33;2.85;;;1.27;;
11711;SDS011;5912;51.034;6.984;2022-08-21T08:42:01;4.45;;;1.70;;
11711;SDS011;5912;51.034;6.984;2022-08-21T08:44:54;4.05;;;1.40;;
11711;SDS011;5912;51.034;6.984;2022-08-21T08:47:21;3.60;;;1.30;;
11711;SDS011;5912;51.034;6.984;2022-08-21T08:50:02;2.45;;;1.05;;
11711;SDS011;5912;51.034;6.984;2022-08-21T08:52:33;3.00;;;1.30;;
11711;SDS011;5912;51.034;6.984;2022-08-21T08:57:35;3.75;;;1.58;;
11711;SDS011;5912;51.034;6.984;2022-08-21T09:00:09;2.70;;;0.90;;
11711;SDS011;5912;51.034;6.984;2022-08-21T09:02:43;2.53;;;1.10;;
11711;SDS011;5912;51.034;6.984;2022-08-21T09:05:14;4.10;;;1.15;;
11711;SDS011;5912;51.034;6.984;2022-08-21T09:07:52;4.72;;;1.25;;
11711;SDS011;5912;51.034;6.984;2022-08-21T09:13:23;3.03;;;0.88;;
11711;SDS011;5912;51.034;6.984;2022-08-21T09:21:16;3.70;;;1.45;;
11711;SDS011;5912;51.034;6.984;2022-08-21T09:29:38;3.45;;;1.70;;
11711;SDS011;5912;51.034;6.984;2022-08-21T09:32:11;3.45;;;1.00;;
11711;SDS011;5912;51.034;6.984;2022-08-21T09:34:43;2.85;;;0.90;;
11711;SDS011;5912;51.034;6.984;2022-08-21T09:37:31;2.67;;;1.08;;
11711;SDS011;5912;51.034;6.984;2022-08-21T09:39:59;4.55;;;1.40;;
11711;SDS011;5912;51.034;6.984;2022-08-21T09:42:27;5.55;;;1.00;;
11711;SDS011;5912;51.034;6.984;2022-08-21T09:47:31;2.10;;;0.90;;
11711;SDS011;5912;51.034;6.984;2022-08-21T09:49:56;2.92;;;1.17;;
11711;SDS011;5912;51.034;6.984;2022-08-21T09:52:52;3.92;;;1.30;;
11711;SDS011;5912;51.034;6.984;2022-08-21T09:55:34;4.90;;;1.38;;
11711;SDS011;5912;51.034;6.984;2022-08-21T09:58:31;1.77;;;1.08;;
11711;SDS011;5912;51.034;6.984;2022-08-21T10:01:01;5.10;;;1.58;;
11711;SDS011;5912;51.034;6.984;2022-08-21T10:03:28;2.55;;;1.25;;
11711;SDS011;5912;51.034;6.984;2022-08-21T10:06:01;2.85;;;0.90;;
11711;SDS011;5912;51.034;6.984;2022-08-21T10:08:30;3.20;;;1.00;;
11711;SDS011;5912;51.034;6.984;2022-08-21T10:11:08;2.05;;;1.05;;
11711;SDS011;5912;51.034;6.984;2022-08-21T10:13:51;3.97;;;1.23;;
11711;SDS011;5912;51.034;6.984;2022-08-21T10:21:57;5.88;;;1.33;;
11711;SDS011;5912;51.034;6.984;2022-08-21T10:30:04;3.20;;;1.20;;
11711;SDS011;5912;51.034;6.984;2022-08-21T10:32:37;2.83;;;1.02;;
11711;SDS011;5912;51.034;6.984;2022-08-21T10:35:28;3.03;;;1.00;;
11711;SDS011;5912;51.034;6.984;2022-08-21T10:43:32;3.00;;;0.93;;
11711;SDS011;5912;51.034;6.984;2022-08-21T10:48:51;4.53;;;1.20;;
11711;SDS011;5912;51.034;6.984;2022-08-21T10:56:38;3.03;;;0.80;;
11711;SDS011;5912;51.034;6.984;2022-08-21T11:01:47;2.33;;;1.15;;
11711;SDS011;5912;51.034;6.984;2022-08-21T11:04:21;2.90;;;0.82;;
11711;SDS011;5912;51.034;6.984;2022-08-21T11:06:57;1.27;;;0.75;;
11711;SDS011;5912;51.034;6.984;2022-08-21T11:09:27;3.60;;;1.00;;
11711;SDS011;5912;51.034;6.984;2022-08-21T11:12:00;1.27;;;0.68;;
11711;SDS011;5912;51.034;6.984;2022-08-21T11:20:55;2.47;;;0.90;;
11711;SDS011;5912;51.034;6.984;2022-08-21T11:23:29;2.22;;;0.82;;
11711;SDS011;5912;51.034;6.984;2022-08-21T11:26:02;1.85;;;0.80;;
11711;SDS011;5912;51.034;6.984;2022-08-21T11:28:35;3.42;;;0.90;;
11711;SDS011;5912;51.034;6.984;2022-08-21T11:44:46;1.92;;;0.70;;
11711;SDS011;5912;51.034;6.984;2022-08-21T11:47:24;1.38;;;0.63;;
11711;SDS011;5912;51.034;6.984;2022-08-21T11:50:00;1.58;;;0.63;;
11711;SDS011;5912;51.034;6.984;2022-08-21T11:55:20;1.97;;;0.73;;
11711;SDS011;5912;51.034;6.984;2022-08-21T12:00:33;1.83;;;0.60;;
11711;SDS011;5912;51.034;6.984;2022-08-21T12:03:11;1.90;;;0.50;;
11711;SDS011;5912;51.034;6.984;2022-08-21T12:05:42;0.73;;;0.45;;
11711;SDS011;5912;51.034;6.984;2022-08-21T12:08:27;2.55;;;0.88;;
11711;SDS011;5912;51.034;6.984;2022-08-21T12:11:01;2.50;;;0.77;;
11711;SDS011;5912;51.034;6.984;2022-08-21T12:16:34;2.97;;;0.80;;
11711;SDS011;5912;51.034;6.984;2022-08-21T12:19:03;1.95;;;0.82;;
11711;SDS011;5912;51.034;6.984;2022-08-21T12:30:22;1.40;;;0.70;;
11711;SDS011;5912;51.034;6.984;2022-08-21T12:32:59;2.10;;;0.50;;
11711;SDS011;5912;51.034;6.984;2022-08-21T12:35:31;1.58;;;0.70;;
11711;SDS011;5912;51.034;6.984;2022-08-21T12:38:06;0.60;;;0.52;;
11711;SDS011;5912;51.034;6.984;2022-08-21T12:40:46;1.83;;;0.73;;
11711;SDS011;5912;51.034;6.984;2022-08-21T12:43:16;2.53;;;0.90;;
11711;SDS011;5912;51.034;6.984;2022-08-21T12:45:49;1.83;;;0.80;;
11711;SDS011;5912;51.034;6.984;2022-08-21T12:51:22;1.85;;;0.80;;
11711;SDS011;5912;51.034;6.984;2022-08-21T12:53:58;2.05;;;0.80;;
11711;SDS011;5912;51.034;6.984;2022-08-21T12:56:28;1.75;;;0.80;;
11711;SDS011;5912;51.034;6.984;2022-08-21T12:58:56;0.93;;;0.60;;
11711;SDS011;5912;51.034;6.984;2022-08-21T13:01:36;2.55;;;0.98;;
11711;SDS011;5912;51.034;6.984;2022-08-21T13:04:06;1.80;;;0.77;;
11711;SDS011;5912;51.034;6.984;2022-08-21T13:06:39;2.03;;;0.88;;
11711;SDS011;5912;51.034;6.984;2022-08-21T13:09:08;1.88;;;0.85;;
11711;SDS011;5912;51.034;6.984;2022-08-21T13:11:38;1.83;;;0.82;;
11711;SDS011;5912;51.034;6.984;2022-08-21T13:14:05;3.60;;;1.00;;
11711;SDS011;5912;51.034;6.984;2022-08-21T13:16:40;1.98;;;0.88;;
11711;SDS011;5912;51.034;6.984;2022-08-21T13:19:06;2.13;;;0.70;;
11711;SDS011;5912;51.034;6.984;2022-08-21T13:21:40;1.70;;;0.75;;
11711;SDS011;5912;51.034;6.984;2022-08-21T13:24:19;2.67;;;0.80;;
11711;SDS011;5912;51.034;6.984;2022-08-21T13:26:48;2.67;;;0.70;;
11711;SDS011;5912;51.034;6.984;2022-08-21T13:29:15;1.20;;;0.60;;
11711;SDS011;5912;51.034;6.984;2022-08-21T13:31:47;2.28;;;0.60;;
11711;SDS011;5912;51.034;6.984;2022-08-21T13:34:16;1.70;;;0.68;;
11711;SDS011;5912;51.034;6.984;2022-08-21T13:36:43;2.72;;;0.90;;
11711;SDS011;5912;51.034;6.984;2022-08-21T13:39:12;1.83;;;0.85;;
11711;SDS011;5912;51.034;6.984;2022-08-21T13:41:42;1.55;;;0.88;;
11711;SDS011;5912;51.034;6.984;2022-08-21T13:46:51;1.98;;;0.80;;
11711;SDS011;5912;51.034;6.984;2022-08-21T13:49:28;2.38;;;0.80;;
11711;SDS011;5912;51.034;6.984;2022-08-21T13:51:56;2.17;;;0.80;;
11711;SDS011;5912;51.034;6.984;2022-08-21T13:54:23;1.70;;;0.70;;
11711;SDS011;5912;51.034;6.984;2022-08-21T13:56:51;1.77;;;0.80;;
11711;SDS011;5912;51.034;6.984;2022-08-21T13:59:24;0.90;;;0.50;;
11711;SDS011;5912;51.034;6.984;2022-08-21T14:01:52;2.00;;;0.88;;
11711;SDS011;5912;51.034;6.984;2022-08-21T14:04:33;2.22;;;0.98;;
11711;SDS011;5912;51.034;6.984;2022-08-21T14:07:02;3.33;;;1.10;;
11711;SDS011;5912;51.034;6.984;2022-08-21T14:09:41;2.25;;;1.02;;
11711;SDS011;5912;51.034;6.984;2022-08-21T14:12:15;3.53;;;1.33;;
11711;SDS011;5912;51.034;6.984;2022-08-21T14:14:44;1.92;;;0.98;;
11711;SDS011;5912;51.034;6.984;2022-08-21T14:17:12;2.10;;;0.70;;
11711;SDS011;5912;51.034;6.984;2022-08-21T14:19:41;0.82;;;0.63;;
11711;SDS011;5912;51.034;6.984;2022-08-21T14:27:26;2.90;;;1.40;;
11711;SDS011;5912;51.034;6.984;2022-08-21T14:29:57;1.83;;;0.90;;
11711;SDS011;5912;51.034;6.984;2022-08-21T14:32:36;1.92;;;0.77;;
11711;SDS011;5912;51.034;6.984;2022-08-21T14:35:04;2.25;;;0.85;;
11711;SDS011;5912;51.034;6.984;2022-08-21T14:37:29;1.55;;;0.70;;
11711;SDS011;5912;51.034;6.984;2022-08-21T14:39:55;1.80;;;0.70;;
11711;SDS011;5912;51.034;6.984;2022-08-21T14:42:20;4.45;;;0.90;;
11711;SDS011;5912;51.034;6.984;2022-08-21T14:44:46;2.08;;;0.75;;
11711;SDS011;5912;51.034;6.984;2022-08-21T14:47:11;2.15;;;0.70;;
11711;SDS011;5912;51.034;6.984;2022-08-21T14:52:27;0.88;;;0.63;;
11711;SDS011;5912;51.034;6.984;2022-08-21T14:54:53;2.00;;;0.98;;
11711;SDS011;5912;51.034;6.984;2022-08-21T14:57:18;1.25;;;0.70;;
11711;SDS011;5912;51.034;6.984;2022-08-21T14:59:43;2.95;;;1.10;;
11711;SDS011;5912;51.034;6.984;2022-08-21T15:02:09;2.28;;;1.13;;
11711;SDS011;5912;51.034;6.984;2022-08-21T15:04:35;3.92;;;0.98;;
11711;SDS011;5912;51.034;6.984;2022-08-21T15:07:00;1.65;;;0.60;;
11711;SDS011;5912;51.034;6.984;2022-08-21T15:09:26;1.42;;;0.68;;
11711;SDS011;5912;51.034;6.984;2022-08-21T15:11:52;1.40;;;0.80;;
11711;SDS011;5912;51.034;6.984;2022-08-21T15:14:20;1.98;;;0.68;;
11711;SDS011;5912;51.034;6.984;2022-08-21T15:16:48;2.47;;;0.77;;
11711;SDS011;5912;51.034;6.984;2022-08-21T15:19:15;1.80;;;0.77;;
11711;SDS011;5912;51.034;6.984;2022-08-21T15:21:40;2.42;;;1.25;;
11711;SDS011;5912;51.034;6.984;2022-08-21T15:24:05;2.70;;;1.38;;
11711;SDS011;5912;51.034;6.984;2022-08-21T15:26:31;5.55;;;0.90;;
11711;SDS011;5912;51.034;6.984;2022-08-21T15:28:56;1.70;;;0.75;;
11711;SDS011;5912;51.034;6.984;2022-08-21T15:31:23;2.78;;;0.80;;
11711;SDS011;5912;51.034;6.984;2022-08-21T15:33:49;1.52;;;0.95;;
11711;SDS011;5912;51.034;6.984;2022-08-21T15:36:14;1.38;;;0.70;;
11711;SDS011;5912;51.034;6.984;2022-08-21T15:38:39;2.00;;;0.77;;
11711;SDS011;5912;51.034;6.984;2022-08-21T15:41:05;0.90;;;0.57;;
11711;SDS011;5912;51.034;6.984;2022-08-21T15:43:32;1.38;;;0.70;;
11711;SDS011;5912;51.034;6.984;2022-08-21T15:46:07;2.05;;;0.95;;
11711;SDS011;5912;51.034;6.984;2022-08-21T15:48:36;1.65;;;0.90;;
11711;SDS011;5912;51.034;6.984;2022-08-21T15:51:02;4.05;;;1.73;;
11711;SDS011;5912;51.034;6.984;2022-08-21T15:53:27;3.95;;;1.42;;
11711;SDS011;5912;51.034;6.984;2022-08-21T15:55:53;1.38;;;0.70;;
11711;SDS011;5912;51.034;6.984;2022-08-21T15:58:18;2.08;;;1.00;;
11711;SDS011;5912;51.034;6.984;2022-08-21T16:00:45;2.00;;;1.00;;
11711;SDS011;5912;51.034;6.984;2022-08-21T16:03:13;3.08;;;1.00;;
11711;SDS011;5912;51.034;6.984;2022-08-21T16:05:42;2.10;;;1.00;;
11711;SDS011;5912;51.034;6.984;2022-08-21T16:08:09;2.20;;;0.95;;
11711;SDS011;5912;51.034;6.984;2022-08-21T16:10:35;1.65;;;0.80;;
11711;SDS011;5912;51.034;6.984;2022-08-21T16:13:06;3.10;;;0.90;;
11711;SDS011;5912;51.034;6.984;2022-08-21T16:15:36;1.80;;;1.10;;
11711;SDS011;5912;51.034;6.984;2022-08-21T16:18:01;5.38;;;1.08;;
11711;SDS011;5912;51.034;6.984;2022-08-21T16:20:28;1.70;;;0.88;;
11711;SDS011;5912;51.034;6.984;2022-08-21T16:22:55;1.85;;;0.80;;
11711;SDS011;5912;51.034;6.984;2022-08-21T16:25:21;3.20;;;1.02;;
11711;SDS011;5912;51.034;6.984;2022-08-21T16:27:48;1.95;;;0.68;;
11711;SDS011;5912;51.034;6.984;2022-08-21T16:30:17;2.75;;;0.80;;
11711;SDS011;5912;51.034;6.984;2022-08-21T16:32:43;1.25;;;0.93;;
11711;SDS011;5912;51.034;6.984;2022-08-21T16:35:10;2.33;;;0.80;;
11711;SDS011;5912;51.034;6.984;2022-08-21T16:37:37;2.80;;;1.00;;
11711;SDS011;5912;51.034;6.984;2022-08-21T16:40:04;1.50;;;0.70;;
11711;SDS011;5912;51.034;6.984;2022-08-21T16:42:30;3.47;;;0.95;;
11711;SDS011;5912;51.034;6.984;2022-08-21T16:44:55;1.77;;;1.15;;
11711;SDS011;5912;51.034;6.984;2022-08-21T16:47:21;1.95;;;0.90;;
11711;SDS011;5912;51.034;6.984;2022-08-21T16:52:43;1.52;;;0.80;;